createdAt,value
2018-11-20T00:01:16.464Z,97221.25
2018-11-20T00:04:07.343Z,97214.08
2018-11-20T00:07:04.046Z,97212.08
2018-11-20T00:09:56.691Z,97207.96
2018-11-20T00:12:44.472Z,97202.04
2018-11-20T00:15:39.887Z,97202.64
2018-11-20T00:18:30.894Z,97198.77
2018-11-20T00:21:14.778Z,97193.79
2018-11-20T00:24:04.250Z,97202.12
2018-11-20T00:26:55.204Z,97200.56
2018-11-20T00:29:46.253Z,97196.70
2018-11-20T00:32:36.250Z,97185.88
2018-11-20T00:35:30.463Z,97193.94
2018-11-20T00:38:27.387Z,97191.77
2018-11-20T00:41:08.110Z,97194.89
2018-11-20T00:44:00.451Z,97190.48
2018-11-20T00:46:54.511Z,97184.59
2018-11-20T00:49:41.501Z,97199.44
2018-11-20T00:52:32.498Z,97183.63
2018-11-20T00:55:27.162Z,97187.33
2018-11-20T00:58:18.223Z,97184.62
2018-11-20T01:01:07.923Z,97179.94
2018-11-20T01:03:59.042Z,97180.67
2018-11-20T01:06:50.383Z,97177.88
2018-11-20T01:09:44.149Z,97180.45
2018-11-20T01:12:44.034Z,97181.00
2018-11-20T01:15:26.420Z,97185.59
2018-11-20T01:18:15.532Z,97181.83
2018-11-20T01:21:12.239Z,97179.14
2018-11-20T01:24:05.451Z,97170.70
2018-11-20T01:27:14.455Z,97156.85
2018-11-20T01:30:03.754Z,97159.34
2018-11-20T01:32:53.051Z,97157.87
2018-11-20T01:35:42.560Z,97163.52
2018-11-20T01:38:33.640Z,97161.38
2018-11-20T01:41:38.395Z,97174.40
2018-11-20T01:44:38.546Z,97159.68
2018-11-20T01:47:27.936Z,97149.71
2018-11-20T01:50:14.827Z,97135.72
2018-11-20T01:53:04.208Z,97149.69
2018-11-20T01:56:04.315Z,97133.39
2018-11-20T01:58:53.613Z,97130.81
2018-11-20T02:01:47.202Z,97124.11
2018-11-20T02:04:36.371Z,97123.64
2018-11-20T02:07:38.507Z,97106.95
2018-11-20T02:10:21.267Z,97106.44
2018-11-20T02:13:56.535Z,97099.09
2018-11-20T02:16:56.368Z,97103.86
2018-11-20T02:19:47.495Z,97099.56
2018-11-20T02:22:30.746Z,97110.47
2018-11-20T02:25:21.728Z,97095.13
2018-11-20T02:28:11.210Z,97091.92
2018-11-20T02:31:04.792Z,97098.70
2018-11-20T02:33:46.953Z,97107.55
2018-11-20T02:36:52.723Z,97105.58
2018-11-20T02:39:43.280Z,97105.19
2018-11-20T02:42:32.833Z,97095.02
2018-11-20T02:45:38.845Z,97095.28
2018-11-20T02:48:29.472Z,97102.48
2018-11-20T02:51:17.216Z,97095.11
2018-11-20T02:54:20.236Z,97099.91
2018-11-20T02:57:08.425Z,97094.34
2018-11-20T02:59:57.938Z,97090.29
2018-11-20T03:02:48.928Z,97086.68
2018-11-20T03:05:38.465Z,97088.06
2018-11-20T03:08:27.952Z,97089.73
2018-11-20T03:11:24.720Z,97089.44
2018-11-20T03:14:14.217Z,97078.48
2018-11-20T03:17:08.065Z,97073.63
2018-11-20T03:19:59.085Z,97068.41
2018-11-20T03:22:50.072Z,97075.19
2018-11-20T03:26:01.004Z,97074.28
2018-11-20T03:29:20.550Z,97074.55
2018-11-20T03:32:29.508Z,97086.38
2018-11-20T03:35:23.277Z,97082.35
2018-11-20T03:38:12.742Z,97092.56
2018-11-20T03:41:21.583Z,97088.32
2018-11-20T03:44:10.815Z,97075.36
2018-11-20T03:47:04.681Z,97084.41
2018-11-20T03:49:53.876Z,97087.16
2018-11-20T03:52:43.132Z,97079.82
2018-11-20T03:55:32.384Z,97062.61
2018-11-20T03:58:21.779Z,97076.77
2018-11-20T04:01:27.503Z,97075.40
2018-11-20T04:04:33.253Z,97092.53
2018-11-20T04:07:23.040Z,97083.86
2018-11-20T04:10:12.182Z,97078.92
2018-11-20T04:13:13.024Z,97067.07
2018-11-20T04:16:05.996Z,97064.88
2018-11-20T04:19:08.822Z,97067.72
2018-11-20T04:22:08.632Z,97093.30
2018-11-20T04:25:02.164Z,97076.47
2018-11-20T04:27:49.595Z,97076.09
2018-11-20T04:31:36.553Z,97058.70
2018-11-20T04:34:27.521Z,97065.91
2018-11-20T04:37:19.998Z,97069.22
2018-11-20T04:40:16.679Z,97061.78
2018-11-20T04:43:14.502Z,97063.51
2018-11-20T04:46:24.384Z,97054.14
2018-11-20T04:49:13.733Z,97054.14
2018-11-20T04:52:04.711Z,97057.06
2018-11-20T04:54:58.443Z,97055.78
2018-11-20T04:57:42.265Z,97056.72
2018-11-20T05:00:32.115Z,97048.25
2018-11-20T05:03:31.871Z,97046.97
2018-11-20T05:06:20.992Z,97036.84
2018-11-20T05:09:14.507Z,97035.25
2018-11-20T05:12:00.723Z,97044.66
2018-11-20T05:14:51.662Z,97042.16
2018-11-20T05:17:34.376Z,97041.26
2018-11-20T05:20:24.147Z,97041.44
2018-11-20T05:23:18.811Z,97033.79
2018-11-20T05:26:12.578Z,97037.27
2018-11-20T05:29:00.793Z,97032.85
2018-11-20T05:32:09.493Z,97044.36
2018-11-20T05:34:58.718Z,97046.94
2018-11-20T05:37:45.530Z,97048.81
2018-11-20T05:40:28.788Z,97056.89
2018-11-20T05:43:18.362Z,97043.50
2018-11-20T05:46:07.906Z,97043.16
2018-11-20T05:48:57.380Z,97027.61
2018-11-20T05:51:49.626Z,97029.66
2018-11-20T05:54:38.891Z,97036.45
2018-11-20T05:57:28.061Z,97030.69
2018-11-20T06:00:17.309Z,97029.10
2018-11-20T06:03:17.842Z,97033.08
2018-11-20T06:06:07.274Z,97029.60
2018-11-20T06:09:12.880Z,97023.52
2018-11-20T06:12:02.205Z,97023.69
2018-11-20T06:14:51.829Z,97026.73
2018-11-20T06:17:41.084Z,97042.84
2018-11-20T06:20:30.281Z,97041.28
2018-11-20T06:23:13.356Z,97049.75
2018-11-20T06:26:04.262Z,97052.41
2018-11-20T06:29:07.267Z,97052.97
2018-11-20T06:31:57.121Z,97061.14
2018-11-20T06:34:35.308Z,97057.66
2018-11-20T06:37:26.345Z,97063.45
2018-11-20T06:40:05.800Z,97057.69
2018-11-20T06:43:11.862Z,97057.95
2018-11-20T06:46:01.200Z,97051.00
2018-11-20T06:48:50.756Z,97051.22
2018-11-20T06:51:56.600Z,97054.66
2018-11-20T06:54:51.336Z,97057.50
2018-11-20T06:57:55.103Z,97056.54
2018-11-20T07:00:58.041Z,97059.85
2018-11-20T07:04:04.123Z,97067.45
2018-11-20T07:06:56.123Z,97068.06
2018-11-20T07:09:52.364Z,97074.59
2018-11-20T07:13:01.303Z,97067.46
2018-11-20T07:16:10.709Z,97071.15
2018-11-20T07:19:01.911Z,97076.48
2018-11-20T07:21:50.950Z,97069.17
2018-11-20T07:24:37.632Z,97068.52
2018-11-20T07:27:27.217Z,97062.43
2018-11-20T07:30:21.174Z,97074.02
2018-11-20T07:33:14.561Z,97073.41
2018-11-20T07:36:04.165Z,97077.75
2018-11-20T07:39:05.054Z,97078.88
2018-11-20T07:41:48.617Z,97073.08
2018-11-20T07:44:51.554Z,97082.45
2018-11-20T07:47:48.587Z,97079.87
2018-11-20T07:50:45.525Z,97071.15
2018-11-20T07:53:35.614Z,97082.73
2018-11-20T07:56:24.950Z,97080.16
2018-11-20T07:59:14.334Z,97074.89
2018-11-20T08:02:14.185Z,97069.01
2018-11-20T08:05:03.298Z,97063.07
2018-11-20T08:07:56.956Z,97062.25
2018-11-20T08:10:53.482Z,97063.80
2018-11-20T08:14:02.708Z,97054.78
2018-11-20T08:16:52.000Z,97069.45
2018-11-20T08:19:51.673Z,97067.81
2018-11-20T08:22:57.846Z,97057.53
2018-11-20T08:25:56.413Z,97051.90
2018-11-20T08:28:43.992Z,97046.13
2018-11-20T08:31:29.531Z,97046.97
2018-11-20T08:34:19.289Z,97040.22
2018-11-20T08:37:28.736Z,97033.86
2018-11-20T08:40:18.195Z,97032.29
2018-11-20T08:43:23.966Z,97032.39
2018-11-20T08:46:14.853Z,97024.09
2018-11-20T08:49:08.316Z,97019.84
2018-11-20T08:52:02.068Z,97016.16
2018-11-20T08:55:05.129Z,97009.89
2018-11-20T08:57:58.917Z,97014.86
2018-11-20T09:00:38.840Z,97015.27
2018-11-20T09:03:28.212Z,97005.51
2018-11-20T09:06:14.388Z,97007.50
2018-11-20T09:09:11.020Z,97013.58
2018-11-20T09:12:04.900Z,97022.63
2018-11-20T09:15:04.922Z,97032.36
2018-11-20T09:18:05.047Z,97024.23
2018-11-20T09:21:07.757Z,97027.38
2018-11-20T09:24:01.627Z,97031.52
2018-11-20T09:26:55.980Z,97029.84
2018-11-20T09:29:59.135Z,97024.50
2018-11-20T09:33:02.031Z,97023.84
2018-11-20T09:36:10.691Z,97031.09
2018-11-20T09:39:00.173Z,97023.28
2018-11-20T09:41:54.843Z,97027.98
2018-11-20T09:45:15.219Z,97027.16
2018-11-20T09:48:06.193Z,97030.75
2018-11-20T09:51:15.333Z,97038.06
2018-11-20T09:54:06.412Z,97028.64
2018-11-20T09:56:59.953Z,97040.59
2018-11-20T09:59:52.694Z,97035.61
2018-11-20T10:02:38.120Z,97033.83
2018-11-20T10:05:27.859Z,97031.38
2018-11-20T10:08:27.653Z,97043.03
2018-11-20T10:11:36.545Z,97040.81
2018-11-20T10:14:24.452Z,97048.00
2018-11-20T10:17:36.041Z,97051.86
2018-11-20T10:20:27.810Z,97051.83
2018-11-20T10:23:27.601Z,97048.27
2018-11-20T10:26:17.208Z,97056.40
2018-11-20T10:29:08.215Z,97047.28
2018-11-20T10:32:01.672Z,97041.93
2018-11-20T10:34:52.772Z,97039.64
2018-11-20T10:37:30.000Z,97036.02
2018-11-20T10:40:27.007Z,97037.41
2018-11-20T10:43:17.563Z,97029.26
2018-11-20T10:46:06.876Z,97019.32
2018-11-20T10:49:12.581Z,97027.75
2018-11-20T10:52:02.213Z,97025.50
2018-11-20T10:54:48.756Z,97021.41
2018-11-20T10:57:51.795Z,97015.97
2018-11-20T11:00:41.243Z,97010.97
2018-11-20T11:03:26.134Z,97008.52
2018-11-20T11:06:15.925Z,97003.84
2018-11-20T11:09:06.266Z,96988.98
2018-11-20T11:11:56.617Z,96988.81
2018-11-20T11:14:46.453Z,96984.80
2018-11-20T11:17:48.746Z,96982.15
2018-11-20T11:20:39.961Z,96986.88
2018-11-20T11:23:30.983Z,96989.33
2018-11-20T11:26:22.123Z,96987.83
2018-11-20T11:29:24.979Z,96980.06
2018-11-20T11:32:24.972Z,96985.34
2018-11-20T11:35:14.191Z,96986.33
2018-11-20T11:38:02.993Z,96991.49
2018-11-20T11:40:52.446Z,96985.19
2018-11-20T11:43:52.093Z,97000.98
2018-11-20T11:46:43.083Z,97004.02
2018-11-20T11:49:32.302Z,97014.64
2018-11-20T11:52:25.352Z,97018.00
2018-11-20T11:55:03.002Z,97017.39
2018-11-20T11:58:49.520Z,97024.83
2018-11-20T12:04:14.339Z,97037.81
2018-11-20T12:07:15.895Z,97036.52
2018-11-20T12:10:03.905Z,97036.69
2018-11-20T12:12:56.070Z,97036.81
2018-11-20T12:15:51.495Z,97029.84
2018-11-20T12:18:39.640Z,97030.80
2018-11-20T12:21:34.897Z,97024.25
2018-11-20T12:24:29.247Z,97027.31
2018-11-20T12:27:16.335Z,97029.05
2018-11-20T12:30:04.467Z,97028.73
2018-11-20T12:32:54.223Z,97030.25
2018-11-20T12:35:49.529Z,97022.61
2018-11-20T12:38:43.435Z,97029.98
2018-11-20T12:41:28.593Z,97018.83
2018-11-20T12:44:20.210Z,97017.52
2018-11-20T12:47:09.257Z,97022.16
2018-11-20T12:50:02.891Z,97021.53
2018-11-20T12:52:56.065Z,97028.95
2018-11-20T12:55:39.774Z,97017.91
2018-11-20T12:58:41.065Z,97012.05
2018-11-20T13:01:39.887Z,97015.27
2018-11-20T13:04:31.238Z,97012.67
2018-11-20T13:07:18.922Z,97011.05
2018-11-20T13:10:11.191Z,97010.75
2018-11-20T13:13:12.760Z,97010.70
2018-11-20T13:16:17.458Z,97008.95
2018-11-20T13:19:04.421Z,97010.83
2018-11-20T13:22:06.021Z,97008.91
2018-11-20T13:25:01.755Z,97015.48
2018-11-20T13:27:51.658Z,97022.06
2018-11-20T13:30:39.572Z,97031.56
2018-11-20T13:33:29.090Z,97025.62
2018-11-20T13:36:24.788Z,97024.12
2018-11-20T13:39:13.836Z,97030.17
2018-11-20T13:42:01.446Z,97031.88
2018-11-20T13:45:18.430Z,97035.42
2018-11-20T13:48:07.300Z,97041.91
2018-11-20T13:50:51.955Z,97033.79
2018-11-20T13:53:47.341Z,97030.41
2018-11-20T13:56:45.995Z,97035.45
2018-11-20T13:59:34.318Z,97037.36
2018-11-20T14:02:27.713Z,97045.60
2018-11-20T14:05:23.186Z,97046.00
2018-11-20T14:08:23.027Z,97048.39
2018-11-20T14:11:16.146Z,97047.69
2018-11-20T14:14:02.456Z,97053.36
2018-11-20T14:16:50.233Z,97057.51
2018-11-20T14:19:45.823Z,97063.17
2018-11-20T14:22:31.660Z,97059.63
2018-11-20T14:25:21.081Z,97068.35
2018-11-20T14:28:05.124Z,97063.59
2018-11-20T14:31:01.084Z,97069.17
2018-11-20T14:33:53.012Z,97071.81
2018-11-20T14:36:46.702Z,97072.91
2018-11-20T14:39:44.427Z,97073.13
2018-11-20T14:42:39.522Z,97077.38
2018-11-20T14:45:44.069Z,97081.48
2018-11-20T14:48:36.667Z,97086.34
2018-11-20T14:51:29.252Z,97089.20
2018-11-20T14:54:12.496Z,97085.76
2018-11-20T14:57:11.673Z,97094.12
2018-11-20T14:59:59.431Z,97094.81
2018-11-20T15:02:47.271Z,97099.99
2018-11-20T15:05:35.179Z,97103.30
2018-11-20T15:08:40.021Z,97113.27
2018-11-20T15:11:32.615Z,97109.83
2018-11-20T15:14:20.417Z,97110.09
2018-11-20T15:17:12.866Z,97107.72
2018-11-20T15:20:00.917Z,97113.50
2018-11-20T15:22:48.997Z,97119.27
2018-11-20T15:25:37.100Z,97122.34
2018-11-20T15:28:24.400Z,97129.52
2018-11-20T15:31:19.594Z,97128.94
2018-11-20T15:34:01.273Z,97123.55
2018-11-20T15:37:02.835Z,97125.27
2018-11-20T15:39:47.075Z,97128.44
2018-11-20T15:42:35.274Z,97128.55
2018-11-20T15:45:23.305Z,97124.10
2018-11-20T15:48:15.812Z,97126.90
2018-11-20T15:51:22.895Z,97129.44
2018-11-20T15:54:11.039Z,97125.66
2018-11-20T15:56:58.771Z,97123.34
2018-11-20T15:59:47.329Z,97120.35
2018-11-20T16:02:34.385Z,97114.50
2018-11-20T16:05:26.042Z,97109.36
2018-11-20T16:08:28.179Z,97102.52
2018-11-20T16:11:18.921Z,97108.06
2018-11-20T16:14:07.615Z,97122.80
2018-11-20T16:16:57.378Z,97120.81
2018-11-20T16:19:45.947Z,97117.84
2018-11-20T16:22:33.803Z,97115.77
2018-11-20T16:25:35.589Z,97112.74
2018-11-20T16:28:34.261Z,97122.37
2018-11-20T16:31:14.323Z,97132.83
2018-11-20T16:34:09.870Z,97139.86
2018-11-20T16:36:51.327Z,97144.36
2018-11-20T16:39:41.096Z,97142.53
2018-11-20T16:42:30.776Z,97142.72
2018-11-20T16:45:18.878Z,97146.95
2018-11-20T16:48:07.081Z,97152.50
2018-11-20T16:50:56.946Z,97146.75
2018-11-20T16:53:45.166Z,97149.62
2018-11-20T16:56:33.551Z,97155.18
2018-11-20T16:59:21.744Z,97155.86
2018-11-20T17:02:23.719Z,97166.58
2018-11-20T17:05:22.606Z,97176.26
2018-11-20T17:08:01.297Z,97194.11
2018-11-20T17:10:49.830Z,97198.17
2018-11-20T17:13:33.821Z,97198.65
2018-11-20T17:16:26.338Z,97205.20
2018-11-20T17:19:18.976Z,97209.52
2018-11-20T17:22:14.254Z,97209.71
2018-11-20T17:25:16.087Z,97201.89
2018-11-20T17:28:13.044Z,97208.34
2018-11-20T17:31:11.836Z,97217.61
2018-11-20T17:34:01.626Z,97223.95
2018-11-20T17:36:50.137Z,97226.08
2018-11-20T17:39:38.847Z,97236.58
2018-11-20T17:42:27.639Z,97233.27
2018-11-20T17:45:20.186Z,97239.98
2018-11-20T17:48:16.137Z,97249.70
2018-11-20T17:51:17.975Z,97259.55
2018-11-20T17:54:11.091Z,97259.56
2018-11-20T17:57:02.219Z,97255.81
2018-11-20T17:59:50.582Z,97261.06
2018-11-20T18:02:39.070Z,97260.70
2018-11-20T18:05:27.309Z,97265.73
2018-11-20T18:08:15.727Z,97270.16
2018-11-20T18:11:04.253Z,97274.92
2018-11-20T18:13:52.792Z,97271.78
2018-11-20T18:16:41.141Z,97280.25
2018-11-20T18:19:33.763Z,97278.58
2018-11-20T18:22:22.022Z,97282.66
2018-11-20T18:25:17.982Z,97282.11
2018-11-20T18:27:58.161Z,97293.36
2018-11-20T18:30:43.265Z,97280.64
2018-11-20T18:33:31.465Z,97281.88
2018-11-20T18:36:17.409Z,97287.02
2018-11-20T18:39:08.814Z,97280.61
2018-11-20T18:41:58.681Z,97287.70
2018-11-20T18:45:06.667Z,97287.56
2018-11-20T18:48:14.669Z,97280.45
2018-11-20T18:50:57.579Z,97275.41
2018-11-20T18:53:50.704Z,97277.97
2018-11-20T18:56:38.879Z,97277.83
2018-11-20T18:59:46.742Z,97278.41
2018-11-20T19:02:47.489Z,97272.81
2018-11-20T19:05:38.130Z,97274.77
2018-11-20T19:08:28.110Z,97278.79
2018-11-20T19:11:29.574Z,97278.32
2018-11-20T19:14:18.286Z,97278.79
2018-11-20T19:17:08.121Z,97280.63
2018-11-20T19:20:09.996Z,97288.47
2018-11-20T19:22:59.924Z,97296.09
2018-11-20T19:25:46.103Z,97297.48
2018-11-20T19:28:43.527Z,97303.77
2018-11-20T19:31:41.423Z,97299.88
2018-11-20T19:34:25.582Z,97300.61
2018-11-20T19:37:11.533Z,97311.16
2018-11-20T19:39:59.816Z,97307.60
2018-11-20T19:42:47.733Z,97318.48
2018-11-20T19:45:40.090Z,97316.48
2018-11-20T19:48:30.793Z,97319.45
2018-11-20T19:51:26.990Z,97327.02
2018-11-20T19:54:19.867Z,97332.89
2018-11-20T19:57:07.898Z,97333.05
2018-11-20T19:59:56.623Z,97340.02
2018-11-20T20:02:51.926Z,97348.05
2018-11-20T20:05:38.739Z,97346.60
2018-11-20T20:08:24.234Z,97355.08
2018-11-20T20:11:19.955Z,97358.78
2018-11-20T20:14:07.395Z,97366.44
2018-11-20T20:16:55.955Z,97364.37
2018-11-20T20:19:45.857Z,97363.45
2018-11-20T20:22:44.666Z,97367.78
2018-11-20T20:25:32.778Z,97367.88
2018-11-20T20:28:20.947Z,97375.43
2018-11-20T20:31:09.210Z,97377.44
2018-11-20T20:33:59.049Z,97379.89
2018-11-20T20:36:47.169Z,97384.78
2018-11-20T20:39:33.763Z,97386.89
2018-11-20T20:42:26.203Z,97390.06
2018-11-20T20:45:25.010Z,97391.70
2018-11-20T20:48:16.641Z,97395.45
2018-11-20T20:51:08.792Z,97389.80
2018-11-20T20:53:57.478Z,97396.63
2018-11-20T20:56:46.558Z,97398.53
2018-11-20T20:59:54.577Z,97406.64
2018-11-20T21:02:47.432Z,97407.70
2018-11-20T21:05:27.541Z,97400.34
2018-11-20T21:08:15.578Z,97401.48
2018-11-20T21:10:57.725Z,97397.30
2018-11-20T21:13:47.506Z,97399.67
2018-11-20T21:16:33.698Z,97410.05
2018-11-20T21:19:41.595Z,97415.88
2018-11-20T21:22:34.040Z,97414.04
2018-11-20T21:25:19.664Z,97418.83
2018-11-20T21:28:18.225Z,97418.38
2018-11-20T21:31:10.638Z,97428.81
2018-11-20T21:34:00.414Z,97427.81
2018-11-20T21:36:56.168Z,97426.22
2018-11-20T21:39:51.703Z,97433.26
2018-11-20T21:42:40.222Z,97430.97
2018-11-20T21:45:33.657Z,97433.69
2018-11-20T21:48:21.991Z,97440.44
2018-11-20T21:51:15.776Z,97440.90
2018-11-20T21:54:05.766Z,97437.75
2018-11-20T21:57:13.225Z,97437.36
2018-11-20T22:00:08.590Z,97445.00
2018-11-20T22:02:55.743Z,97445.97
2018-11-20T22:05:43.888Z,97441.83
2018-11-20T22:08:39.706Z,97438.79
2018-11-20T22:11:35.573Z,97440.91
2018-11-20T22:14:23.819Z,97440.44
2018-11-20T22:17:28.514Z,97438.25
2018-11-20T22:20:21.672Z,97438.55
2018-11-20T22:23:05.329Z,97438.19
2018-11-20T22:25:53.790Z,97431.61
2018-11-20T22:28:55.264Z,97432.11
2018-11-20T22:31:48.046Z,97425.31
2018-11-20T22:34:36.582Z,97428.56
2018-11-20T22:37:17.603Z,97432.89
2018-11-20T22:40:13.375Z,97426.39
2018-11-20T22:43:08.767Z,97429.46
2018-11-20T22:45:56.703Z,97433.94
2018-11-20T22:48:52.154Z,97430.54
2018-11-20T22:51:47.441Z,97430.67
2018-11-20T22:54:35.858Z,97422.50
2018-11-20T22:57:28.222Z,97420.68
2018-11-20T23:00:21.163Z,97420.53
2018-11-20T23:02:58.834Z,97412.89
2018-11-20T23:06:01.899Z,97418.25
2018-11-20T23:08:35.576Z,97417.19
2018-11-20T23:11:06.428Z,97419.05
2018-11-20T23:13:37.315Z,97416.40
2018-11-20T23:16:08.158Z,97422.76
2018-11-20T23:18:38.961Z,97428.91
2018-11-20T23:21:09.902Z,97435.19
2018-11-20T23:23:40.737Z,97427.11
2018-11-20T23:26:11.595Z,97426.81
2018-11-20T23:28:42.434Z,97433.50
2018-11-20T23:31:13.430Z,97440.45
2018-11-20T23:33:44.307Z,97429.65
2018-11-20T23:36:15.142Z,97426.69
2018-11-20T23:38:45.857Z,97428.05
2018-11-20T23:41:16.900Z,97430.55
2018-11-20T23:43:47.785Z,97426.17
2018-11-20T23:46:21.289Z,97420.48
2018-11-20T23:48:51.974Z,97418.96
2018-11-20T23:51:22.756Z,97403.67
2018-11-20T23:53:53.752Z,97405.79
2018-11-20T23:56:24.572Z,97406.87
2018-11-20T23:58:55.461Z,97407.98
